createdAt,value
2023-04-15T00:00:40.570Z,2.41
2023-04-15T00:03:08.003Z,2.38
2023-04-15T00:05:36.667Z,2.33
2023-04-15T00:08:04.219Z,2.29
2023-04-15T00:10:31.449Z,2.29
2023-04-15T00:12:58.613Z,2.29
2023-04-15T00:15:25.787Z,2.26
2023-04-15T00:17:53.042Z,2.25
2023-04-15T00:20:20.229Z,2.25
2023-04-15T00:22:48.798Z,2.25
2023-04-15T00:25:16.058Z,2.20
2023-04-15T00:27:43.236Z,2.18
2023-04-15T00:30:11.253Z,2.18
2023-04-15T00:32:38.525Z,2.19
2023-04-15T00:35:06.809Z,2.19
2023-04-15T00:37:34.034Z,2.21
2023-04-15T00:40:02.640Z,2.22
2023-04-15T00:42:29.964Z,2.23
2023-04-15T00:44:57.227Z,2.23
2023-04-15T00:47:24.579Z,2.23
2023-04-15T00:49:51.798Z,2.23
2023-04-15T00:52:19.072Z,2.24
2023-04-15T00:54:46.288Z,2.24
2023-04-15T00:57:14.811Z,2.27
2023-04-15T00:59:42.102Z,2.26
2023-04-15T01:02:09.445Z,2.29
2023-04-15T01:04:36.845Z,2.29
2023-04-15T01:07:04.123Z,2.29
2023-04-15T01:09:32.334Z,2.30
2023-04-15T01:11:59.992Z,2.27
2023-04-15T01:14:28.942Z,2.26
2023-04-15T01:16:56.149Z,2.28
2023-04-15T01:19:23.368Z,2.26
2023-04-15T01:21:50.587Z,2.25
2023-04-15T01:24:19.136Z,2.25
2023-04-15T01:26:48.124Z,2.26
2023-04-15T01:29:15.380Z,2.23
2023-04-15T01:31:50.453Z,2.20
2023-04-15T01:34:18.510Z,2.17
2023-04-15T01:36:45.790Z,2.16
2023-04-15T01:39:14.591Z,2.15
2023-04-15T01:41:41.719Z,2.14
2023-04-15T01:44:10.260Z,2.16
2023-04-15T01:46:38.125Z,2.19
2023-04-15T01:49:05.372Z,2.19
2023-04-15T01:51:33.281Z,2.21
2023-04-15T01:54:00.560Z,2.26
2023-04-15T01:56:27.763Z,2.30
2023-04-15T01:58:54.925Z,2.32
2023-04-15T02:01:23.736Z,2.29
2023-04-15T02:03:51.177Z,2.32
2023-04-15T02:06:18.455Z,2.31
2023-04-15T02:08:45.664Z,2.36
2023-04-15T02:11:12.882Z,2.40
2023-04-15T02:13:40.336Z,2.41
2023-04-15T02:16:16.064Z,2.43
2023-04-15T02:18:46.143Z,2.40
2023-04-15T02:21:13.476Z,2.39
2023-04-15T02:23:40.740Z,2.40
2023-04-15T02:26:07.948Z,2.41
2023-04-15T02:28:35.181Z,2.39
2023-04-15T02:31:05.603Z,2.36
2023-04-15T02:33:32.824Z,2.31
2023-04-15T02:36:02.477Z,2.38
2023-04-15T02:38:29.669Z,2.34
2023-04-15T02:40:56.823Z,2.36
2023-04-15T02:43:23.958Z,2.32
2023-04-15T02:45:52.149Z,2.35
2023-04-15T02:48:20.697Z,2.32
2023-04-15T02:50:47.882Z,2.34
2023-04-15T02:53:17.593Z,2.37
2023-04-15T02:55:44.820Z,2.37
2023-04-15T02:58:12.056Z,2.39
2023-04-15T03:00:39.314Z,2.36
2023-04-15T03:03:07.475Z,2.31
2023-04-15T03:05:34.871Z,2.33
2023-04-15T03:08:04.537Z,2.37
2023-04-15T03:10:33.116Z,2.40
2023-04-15T03:13:02.085Z,2.42
2023-04-15T03:15:29.505Z,2.42
2023-04-15T03:17:56.765Z,2.42
2023-04-15T03:20:24.083Z,2.41
2023-04-15T03:22:51.812Z,2.43
2023-04-15T03:25:21.002Z,2.45
2023-04-15T03:27:49.597Z,2.45
2023-04-15T03:30:17.528Z,2.41
2023-04-15T03:32:44.779Z,2.44
2023-04-15T03:35:11.972Z,2.44
2023-04-15T03:37:39.180Z,2.45
2023-04-15T03:40:08.035Z,2.46
2023-04-15T03:42:35.191Z,2.47
2023-04-15T03:45:04.398Z,2.47
2023-04-15T03:47:31.661Z,2.44
2023-04-15T03:49:58.868Z,2.41
2023-04-15T03:52:25.999Z,2.39
2023-04-15T03:54:53.160Z,2.36
2023-04-15T03:57:20.349Z,2.32
2023-04-15T03:59:47.544Z,2.34
2023-04-15T04:02:16.137Z,2.37
2023-04-15T04:04:43.423Z,2.37
2023-04-15T04:07:15.477Z,2.39
2023-04-15T04:09:42.749Z,2.38
2023-04-15T04:12:09.932Z,2.41
2023-04-15T04:14:37.180Z,2.42
2023-04-15T04:17:04.384Z,2.43
2023-04-15T04:19:33.019Z,2.45
2023-04-15T04:22:00.158Z,2.43
2023-04-15T04:24:27.331Z,2.40
2023-04-15T04:26:54.548Z,2.38
2023-04-15T04:29:21.805Z,2.37
2023-04-15T04:31:49.357Z,2.36
2023-04-15T04:34:16.588Z,2.37
2023-04-15T04:36:45.172Z,2.38
2023-04-15T04:39:12.398Z,2.40
2023-04-15T04:41:39.581Z,2.43
2023-04-15T04:44:06.699Z,2.44
2023-04-15T04:46:33.881Z,2.47
2023-04-15T04:49:01.362Z,2.52
2023-04-15T04:51:28.829Z,2.53
2023-04-15T04:53:57.366Z,2.55
2023-04-15T04:56:24.562Z,2.59
2023-04-15T04:58:51.762Z,2.61
2023-04-15T05:01:19.158Z,2.67
2023-04-15T05:03:46.497Z,2.70
2023-04-15T05:06:13.694Z,2.76
2023-04-15T05:08:40.889Z,2.83
2023-04-15T05:11:09.501Z,2.85
2023-04-15T05:13:36.682Z,2.88
2023-04-15T05:16:04.564Z,2.87
2023-04-15T05:18:31.816Z,2.91
2023-04-15T05:20:59.644Z,2.94
2023-04-15T05:23:27.459Z,2.98
2023-04-15T05:25:54.792Z,3.05
2023-04-15T05:28:23.473Z,3.12
2023-04-15T05:30:50.739Z,3.18
2023-04-15T05:33:18.007Z,3.27
2023-04-15T05:35:45.179Z,3.34
2023-04-15T05:38:12.370Z,3.33
2023-04-15T05:40:39.570Z,3.28
2023-04-15T05:43:06.787Z,3.25
2023-04-15T05:45:35.333Z,3.36
2023-04-15T05:48:02.546Z,3.33
2023-04-15T05:50:29.770Z,3.38
2023-04-15T05:52:57.026Z,3.49
2023-04-15T05:55:24.253Z,3.49
2023-04-15T05:57:51.432Z,3.62
2023-04-15T06:00:18.924Z,3.74
2023-04-15T06:02:50.657Z,3.81
2023-04-15T06:05:17.817Z,3.82
2023-04-15T06:07:46.673Z,3.95
2023-04-15T06:10:15.205Z,4.06
2023-04-15T06:12:42.435Z,4.12
2023-04-15T06:15:10.461Z,4.15
2023-04-15T06:17:37.722Z,4.20
2023-04-15T06:20:07.420Z,4.21
2023-04-15T06:22:34.645Z,4.22
2023-04-15T06:25:01.882Z,4.41
2023-04-15T06:27:29.238Z,4.51
2023-04-15T06:29:56.419Z,4.60
2023-04-15T06:32:23.654Z,4.72
2023-04-15T06:34:50.857Z,4.78
2023-04-15T06:37:19.431Z,4.88
2023-04-15T06:39:46.660Z,4.99
2023-04-15T06:42:13.896Z,5.10
2023-04-15T06:44:41.079Z,5.23
2023-04-15T06:47:08.471Z,5.23
2023-04-15T06:49:35.633Z,5.34
2023-04-15T06:52:02.935Z,5.42
2023-04-15T06:54:31.467Z,5.53
2023-04-15T06:56:58.669Z,5.75
2023-04-15T06:59:25.804Z,5.93
2023-04-15T07:01:53.050Z,6.09
2023-04-15T07:04:20.372Z,6.17
2023-04-15T07:06:47.601Z,6.37
2023-04-15T07:09:14.773Z,6.29
2023-04-15T07:11:43.363Z,6.23
2023-04-15T07:14:10.568Z,6.32
2023-04-15T07:16:37.729Z,6.25
2023-04-15T07:19:04.913Z,6.29
2023-04-15T07:21:32.223Z,6.30
2023-04-15T07:23:59.444Z,6.42
2023-04-15T07:26:26.695Z,6.36
2023-04-15T07:28:55.222Z,6.49
2023-04-15T07:31:22.410Z,6.46
2023-04-15T07:33:49.609Z,6.49
2023-04-15T07:36:16.802Z,6.45
2023-04-15T07:38:44.165Z,6.62
2023-04-15T07:41:11.639Z,6.84
2023-04-15T07:43:38.860Z,7.05
2023-04-15T07:46:07.385Z,7.23
2023-04-15T07:48:35.573Z,7.36
2023-04-15T07:51:04.577Z,7.52
2023-04-15T07:53:31.778Z,7.46
2023-04-15T07:55:58.948Z,7.35
2023-04-15T07:58:27.285Z,7.43
2023-04-15T08:00:54.457Z,7.53
2023-04-15T08:03:23.615Z,7.82
2023-04-15T08:05:50.978Z,7.97
2023-04-15T08:08:18.150Z,8.19
2023-04-15T08:10:45.371Z,8.55
2023-04-15T08:13:12.607Z,8.77
2023-04-15T08:15:39.872Z,9.08
2023-04-15T08:18:07.242Z,9.15
2023-04-15T08:20:35.805Z,9.05
2023-04-15T08:23:03.331Z,9.09
2023-04-15T08:25:30.563Z,9.13
2023-04-15T08:27:57.999Z,9.20
2023-04-15T08:30:25.186Z,9.30
2023-04-15T08:32:52.458Z,9.36
2023-04-15T08:35:19.691Z,9.63
2023-04-15T08:37:48.255Z,9.65
2023-04-15T08:40:15.710Z,9.68
2023-04-15T08:42:47.365Z,9.63
2023-04-15T08:45:15.123Z,9.69
2023-04-15T08:47:44.340Z,9.63
2023-04-15T08:50:12.179Z,9.73
2023-04-15T08:52:40.000Z,10.00
2023-04-15T08:55:11.023Z,10.15
2023-04-15T08:57:38.432Z,10.41
2023-04-15T09:00:07.221Z,10.72
2023-04-15T09:02:34.834Z,11.04
2023-04-15T09:05:02.419Z,11.14
2023-04-15T09:07:29.603Z,11.39
2023-04-15T09:09:56.845Z,11.45
2023-04-15T09:12:25.417Z,11.57
2023-04-15T09:14:52.744Z,11.57
2023-04-15T09:17:20.342Z,11.68
2023-04-15T09:19:47.722Z,11.71
2023-04-15T09:22:15.510Z,11.39
2023-04-15T09:24:42.687Z,11.55
2023-04-15T09:27:10.329Z,11.59
2023-04-15T09:29:41.356Z,11.59
2023-04-15T09:32:13.389Z,11.24
2023-04-15T09:34:40.819Z,11.20
2023-04-15T09:37:08.138Z,10.69
2023-04-15T09:39:49.410Z,10.21
2023-04-15T09:42:16.962Z,10.07
2023-04-15T09:44:45.525Z,10.15
2023-04-15T09:47:27.399Z,9.99
2023-04-15T09:49:57.737Z,10.10
2023-04-15T09:52:24.958Z,9.90
2023-04-15T09:54:54.057Z,9.95
2023-04-15T09:57:21.165Z,9.92
2023-04-15T09:59:49.726Z,9.82
2023-04-15T10:02:19.258Z,9.58
2023-04-15T10:04:48.018Z,9.41
2023-04-15T10:07:15.703Z,9.28
2023-04-15T10:09:44.018Z,9.25
2023-04-15T10:12:11.989Z,9.32
2023-04-15T10:14:41.108Z,9.33
2023-04-15T10:17:11.437Z,9.09
2023-04-15T10:19:38.653Z,9.07
2023-04-15T10:22:06.342Z,9.03
2023-04-15T10:24:34.062Z,9.14
2023-04-15T10:27:03.547Z,9.02
2023-04-15T10:29:31.132Z,9.08
2023-04-15T10:31:58.908Z,9.06
2023-04-15T10:34:28.555Z,9.01
2023-04-15T10:36:56.005Z,8.97
2023-04-15T10:39:43.291Z,9.09
2023-04-15T10:42:11.955Z,9.34
2023-04-15T10:44:39.884Z,9.38
2023-04-15T10:47:10.518Z,9.69
2023-04-15T10:49:45.740Z,9.80
2023-04-15T10:52:15.086Z,9.70
2023-04-15T10:54:42.353Z,9.44
2023-04-15T10:57:15.363Z,9.48
2023-04-15T11:00:10.053Z,9.73
2023-04-15T11:02:42.183Z,9.88
2023-04-15T11:05:11.682Z,9.96
2023-04-15T11:07:49.234Z,9.61
2023-04-15T11:10:49.762Z,9.60
2023-04-15T11:13:18.302Z,9.51
2023-04-15T11:15:46.225Z,9.75
2023-04-15T11:18:14.944Z,9.80
2023-04-15T11:20:44.857Z,9.69
2023-04-15T11:23:15.302Z,9.22
2023-04-15T11:25:43.941Z,9.22
2023-04-15T11:28:12.068Z,9.29
2023-04-15T11:30:40.568Z,9.28
2023-04-15T11:33:09.417Z,8.94
2023-04-15T11:35:36.565Z,8.67
2023-04-15T11:38:08.196Z,8.83
2023-04-15T11:40:35.612Z,8.93
2023-04-15T11:43:07.722Z,8.94
2023-04-15T11:45:35.747Z,9.13
2023-04-15T11:48:07.399Z,9.31
2023-04-15T11:50:35.360Z,9.37
2023-04-15T11:53:08.156Z,9.52
2023-04-15T11:55:43.053Z,9.52
2023-04-15T11:58:11.797Z,9.63
2023-04-15T12:00:40.050Z,9.83
2023-04-15T12:03:14.814Z,9.78
2023-04-15T12:06:04.611Z,9.87
2023-04-15T12:09:03.921Z,9.95
2023-04-15T12:11:34.296Z,9.28
2023-04-15T12:14:06.371Z,9.40
2023-04-15T12:16:37.107Z,9.24
2023-04-15T12:19:18.521Z,9.24
2023-04-15T12:21:47.784Z,9.31
2023-04-15T12:24:21.164Z,9.33
2023-04-15T12:26:50.214Z,9.41
2023-04-15T12:29:18.022Z,9.49
2023-04-15T12:31:52.532Z,9.48
2023-04-15T12:34:27.545Z,9.38
2023-04-15T12:36:54.917Z,9.24
2023-04-15T12:39:24.130Z,9.28
2023-04-15T12:41:51.409Z,9.39
2023-04-15T12:44:18.701Z,9.48
2023-04-15T12:46:46.021Z,9.39
2023-04-15T12:49:13.255Z,9.30
2023-04-15T12:51:40.585Z,9.33
2023-04-15T12:54:07.912Z,9.27
2023-04-15T12:56:36.462Z,9.26
2023-04-15T12:59:03.644Z,9.33
2023-04-15T13:01:30.838Z,9.36
2023-04-15T13:03:58.075Z,9.26
2023-04-15T13:06:25.380Z,9.23
2023-04-15T13:08:58.464Z,8.96
2023-04-15T13:11:26.098Z,8.89
2023-04-15T13:13:54.904Z,8.84
2023-04-15T13:16:22.188Z,8.97
2023-04-15T13:18:49.418Z,9.01
2023-04-15T13:21:17.524Z,8.79
2023-04-15T13:23:44.763Z,8.94
2023-04-15T13:26:11.962Z,8.97
2023-04-15T13:28:39.319Z,9.11
2023-04-15T13:31:07.966Z,9.10
2023-04-15T13:33:35.190Z,8.84
2023-04-15T13:36:02.452Z,8.97
2023-04-15T13:38:29.759Z,8.82
2023-04-15T13:40:56.951Z,8.60
2023-04-15T13:43:24.140Z,8.73
2023-04-15T13:45:51.416Z,8.90
2023-04-15T13:48:20.095Z,8.88
2023-04-15T13:50:47.267Z,8.98
2023-04-15T13:53:14.480Z,9.09
2023-04-15T13:55:42.293Z,8.94
2023-04-15T13:58:10.082Z,8.91
2023-04-15T14:00:37.424Z,8.65
2023-04-15T14:03:04.829Z,8.58
2023-04-15T14:05:33.782Z,8.56
2023-04-15T14:08:01.261Z,8.50
2023-04-15T14:10:28.619Z,8.73
2023-04-15T14:12:55.816Z,8.62
2023-04-15T14:15:23.003Z,8.87
2023-04-15T14:17:50.325Z,8.89
2023-04-15T14:20:17.760Z,9.05
2023-04-15T14:22:46.334Z,9.14
2023-04-15T14:25:23.069Z,8.98
2023-04-15T14:27:57.925Z,8.90
2023-04-15T14:30:25.111Z,8.90
2023-04-15T14:32:52.334Z,8.97
2023-04-15T14:35:19.566Z,9.03
2023-04-15T14:37:48.190Z,9.23
2023-04-15T14:40:15.386Z,9.22
2023-04-15T14:42:42.731Z,9.23
2023-04-15T14:45:10.853Z,9.20
2023-04-15T14:47:38.072Z,8.95
2023-04-15T14:50:06.228Z,8.95
2023-04-15T14:52:33.457Z,9.05
2023-04-15T14:55:01.998Z,8.94
2023-04-15T14:57:29.204Z,8.89
2023-04-15T14:59:56.702Z,8.78
2023-04-15T15:02:37.361Z,8.91
2023-04-15T15:05:06.695Z,9.09
2023-04-15T15:07:34.185Z,8.95
2023-04-15T15:10:03.189Z,8.94
2023-04-15T15:12:30.462Z,8.91
2023-04-15T15:14:57.717Z,9.03
2023-04-15T15:17:25.135Z,9.09
2023-04-15T15:19:52.485Z,9.15
2023-04-15T15:22:21.335Z,9.24
2023-04-15T15:24:48.871Z,9.22
2023-04-15T15:27:17.489Z,9.10
2023-04-15T15:29:44.713Z,8.97
2023-04-15T15:32:11.892Z,9.05
2023-04-15T15:34:39.319Z,9.07
2023-04-15T15:37:06.601Z,9.09
2023-04-15T15:39:34.935Z,9.17
2023-04-15T15:42:02.775Z,9.15
2023-04-15T15:44:32.525Z,9.16
2023-04-15T15:47:01.495Z,9.17
2023-04-15T15:49:28.847Z,9.18
2023-04-15T15:51:56.342Z,9.21
2023-04-15T15:54:25.196Z,9.19
2023-04-15T15:56:52.368Z,9.22
2023-04-15T15:59:19.555Z,9.20
2023-04-15T16:01:48.189Z,9.16
2023-04-15T16:04:15.830Z,9.10
2023-04-15T16:06:43.322Z,9.14
2023-04-15T16:09:10.597Z,9.15
2023-04-15T16:11:37.962Z,9.11
2023-04-15T16:14:05.336Z,9.11
2023-04-15T16:16:32.671Z,9.16
2023-04-15T16:19:01.292Z,9.14
2023-04-15T16:21:28.556Z,9.09
2023-04-15T16:23:56.194Z,9.08
2023-04-15T16:26:23.510Z,9.01
2023-04-15T16:28:50.693Z,9.05
2023-04-15T16:31:17.915Z,8.95
2023-04-15T16:33:45.182Z,8.96
2023-04-15T16:36:13.791Z,8.96
2023-04-15T16:38:40.948Z,8.90
2023-04-15T16:41:08.356Z,8.84
2023-04-15T16:43:35.537Z,8.84
2023-04-15T16:46:02.766Z,8.88
2023-04-15T16:48:30.075Z,8.83
2023-04-15T16:50:57.621Z,8.77
2023-04-15T16:53:26.259Z,8.79
2023-04-15T16:55:53.521Z,8.77
2023-04-15T16:58:20.799Z,8.77
2023-04-15T17:00:47.954Z,8.74
2023-04-15T17:03:15.315Z,8.74
2023-04-15T17:05:42.724Z,8.71
2023-04-15T17:08:09.903Z,8.76
2023-04-15T17:10:38.549Z,8.70
2023-04-15T17:13:05.692Z,8.71
2023-04-15T17:15:32.980Z,8.75
2023-04-15T17:18:00.354Z,8.70
2023-04-15T17:20:27.715Z,8.74
2023-04-15T17:22:54.895Z,8.71
2023-04-15T17:25:23.120Z,8.69
2023-04-15T17:27:51.669Z,8.68
2023-04-15T17:30:19.523Z,8.76
2023-04-15T17:32:46.877Z,8.71
2023-04-15T17:35:14.096Z,8.75
2023-04-15T17:37:41.313Z,8.75
2023-04-15T17:40:09.279Z,8.75
2023-04-15T17:42:36.453Z,8.73
2023-04-15T17:45:06.133Z,8.72
2023-04-15T17:47:33.318Z,8.70
2023-04-15T17:50:00.534Z,8.69
2023-04-15T17:52:27.741Z,8.66
2023-04-15T17:54:54.900Z,8.61
2023-04-15T17:57:22.192Z,8.67
2023-04-15T17:59:49.379Z,8.56
2023-04-15T18:02:18.199Z,8.62
2023-04-15T18:04:45.432Z,8.64
2023-04-15T18:07:13.102Z,8.60
2023-04-15T18:09:40.397Z,8.60
2023-04-15T18:12:07.796Z,8.54
2023-04-15T18:14:35.249Z,8.53
2023-04-15T18:17:02.940Z,8.52
2023-04-15T18:19:31.617Z,8.46
2023-04-15T18:21:58.997Z,8.50
2023-04-15T18:24:26.248Z,8.52
2023-04-15T18:26:53.442Z,8.48
2023-04-15T18:29:20.674Z,8.52
2023-04-15T18:31:48.094Z,8.47
2023-04-15T18:34:15.476Z,8.50
2023-04-15T18:36:44.103Z,8.43
2023-04-15T18:39:11.314Z,8.42
2023-04-15T18:41:38.492Z,8.40
2023-04-15T18:44:05.720Z,8.38
2023-04-15T18:46:33.094Z,8.32
2023-04-15T18:49:00.893Z,8.28
2023-04-15T18:51:28.369Z,8.33
2023-04-15T18:53:57.072Z,8.25
2023-04-15T18:56:24.389Z,8.24
2023-04-15T18:59:19.377Z,8.24
2023-04-15T19:01:39.522Z,8.25
2023-04-15T19:04:06.906Z,8.25
2023-04-15T19:06:34.169Z,8.24
2023-04-15T19:09:03.029Z,8.28
2023-04-15T19:11:30.371Z,8.32
2023-04-15T19:13:57.734Z,8.37
2023-04-15T19:16:25.067Z,8.37
2023-04-15T19:18:52.302Z,8.38
2023-04-15T19:21:19.579Z,8.37
2023-04-15T19:23:46.976Z,8.36
2023-04-15T19:26:15.747Z,8.34
2023-04-15T19:28:42.945Z,8.35
2023-04-15T19:31:10.228Z,8.32
2023-04-15T19:33:37.447Z,8.33
2023-04-15T19:36:06.970Z,8.31
2023-04-15T19:38:34.355Z,8.33
2023-04-15T19:41:01.696Z,8.31
2023-04-15T19:43:30.853Z,8.30
2023-04-15T19:45:58.149Z,8.27
2023-04-15T19:48:25.542Z,8.30
2023-04-15T19:50:52.873Z,8.30
2023-04-15T19:53:20.069Z,8.32
2023-04-15T19:55:47.280Z,8.36
2023-04-15T19:58:14.683Z,8.32
2023-04-15T20:00:43.295Z,8.20
2023-04-15T20:03:10.860Z,8.25
2023-04-15T20:05:38.227Z,8.23
2023-04-15T20:08:05.555Z,8.22
2023-04-15T20:10:32.976Z,8.20
2023-04-15T20:13:00.254Z,8.27
2023-04-15T20:15:27.741Z,8.25
2023-04-15T20:17:56.489Z,8.28
2023-04-15T20:20:23.865Z,8.31
2023-04-15T20:22:51.222Z,8.27
2023-04-15T20:25:18.744Z,8.25
2023-04-15T20:27:45.981Z,8.30
2023-04-15T20:30:13.234Z,8.31
2023-04-15T20:32:40.555Z,8.25
2023-04-15T20:35:09.599Z,8.23
2023-04-15T20:37:37.657Z,8.22
2023-04-15T20:40:05.908Z,8.22
2023-04-15T20:42:33.875Z,8.27
2023-04-15T20:45:01.442Z,8.30
2023-04-15T20:47:28.907Z,8.34
2023-04-15T20:49:56.342Z,8.35
2023-04-15T20:52:25.014Z,8.35
2023-04-15T20:54:52.240Z,8.32
2023-04-15T20:57:19.446Z,8.39
2023-04-15T20:59:46.761Z,8.44
2023-04-15T21:02:14.057Z,8.44
2023-04-15T21:04:41.361Z,8.44
2023-04-15T21:07:09.162Z,8.38
2023-04-15T21:09:37.751Z,8.32
2023-04-15T21:12:04.876Z,8.34
2023-04-15T21:14:32.124Z,8.40
2023-04-15T21:16:59.492Z,8.37
2023-04-15T21:19:26.733Z,8.40
2023-04-15T21:21:54.024Z,8.39
2023-04-15T21:24:21.294Z,8.42
2023-04-15T21:26:49.892Z,8.39
2023-04-15T21:29:17.104Z,8.38
2023-04-15T21:31:44.526Z,8.42
2023-04-15T21:34:11.921Z,8.37
2023-04-15T21:36:39.119Z,8.43
2023-04-15T21:39:06.493Z,8.43
2023-04-15T21:41:34.039Z,8.34
2023-04-15T21:44:03.103Z,8.35
2023-04-15T21:46:32.776Z,8.39
2023-04-15T21:49:00.664Z,8.30
2023-04-15T21:51:28.011Z,8.31
2023-04-15T21:53:55.374Z,8.34
2023-04-15T21:56:22.558Z,8.31
2023-04-15T21:58:50.130Z,8.28
2023-04-15T22:01:18.790Z,8.29
2023-04-15T22:03:46.215Z,8.27
2023-04-15T22:06:13.495Z,8.24
2023-04-15T22:08:52.334Z,8.24
2023-04-15T22:11:23.006Z,8.23
2023-04-15T22:13:50.277Z,8.22
2023-04-15T22:16:18.940Z,8.26
2023-04-15T22:18:46.171Z,8.31
2023-04-15T22:21:13.862Z,8.32
2023-04-15T22:23:41.161Z,8.31
2023-04-15T22:26:08.387Z,8.30
2023-04-15T22:28:35.550Z,8.27
2023-04-15T22:31:02.802Z,8.31
2023-04-15T22:33:31.581Z,8.16
2023-04-15T22:35:58.806Z,8.24
2023-04-15T22:38:26.002Z,8.16
2023-04-15T22:40:53.200Z,8.26
2023-04-15T22:43:20.448Z,8.25
2023-04-15T22:45:49.692Z,8.27
2023-04-15T22:48:17.129Z,8.25
2023-04-15T22:50:46.062Z,8.35
2023-04-15T22:53:16.626Z,8.25
2023-04-15T22:55:45.042Z,8.26
2023-04-15T22:58:12.323Z,8.25
2023-04-15T23:00:39.743Z,8.29
2023-04-15T23:03:07.137Z,8.29
2023-04-15T23:05:34.658Z,8.24
2023-04-15T23:08:03.543Z,8.26
2023-04-15T23:10:30.870Z,8.22
2023-04-15T23:12:58.101Z,8.22
2023-04-15T23:15:25.472Z,8.23
2023-04-15T23:17:52.675Z,8.26
2023-04-15T23:20:19.835Z,8.22
2023-04-15T23:22:47.020Z,8.16
2023-04-15T23:25:15.520Z,8.16
2023-04-15T23:27:42.668Z,8.06
2023-04-15T23:30:10.097Z,8.05
2023-04-15T23:32:37.335Z,8.11
2023-04-15T23:35:05.155Z,8.12
2023-04-15T23:37:32.396Z,8.09
2023-04-15T23:39:59.598Z,8.08
2023-04-15T23:42:28.240Z,8.09
2023-04-15T23:44:55.402Z,8.07
2023-04-15T23:47:23.033Z,8.05
2023-04-15T23:49:50.194Z,8.00
2023-04-15T23:52:17.600Z,8.06
2023-04-15T23:54:44.772Z,8.13
2023-04-15T23:57:11.982Z,8.17
2023-04-15T23:59:40.576Z,8.16
